This is the latest recevied weather packets stored in our database for station/object I3RKE-10. If no packets are shown the sender has not sent any weather packets the latest 10 day(s).
| Time | Temp. | Humidity | Pressure | Rain* | Wind** | Luminosity | Snow |
|---|---|---|---|---|---|---|---|
| 1777876010 | 17.22° C | 51% | 1011.2 hPa | - | - | - | - |
| 1777875104 | 17.22° C | 53% | 1011.1 hPa | - | - | - | - |
| 1777874204 | 15.56° C | 58% | 1011.1 hPa | - | - | - | - |
| 1777873304 | 15° C | 61% | 1011 hPa | - | - | - | - |
| 1777872403 | 13.89° C | 63% | 1011 hPa | - | - | - | - |
| 1777871503 | 13.89° C | 62% | 1010.8 hPa | - | - | - | - |
| 1777870603 | 13.33° C | 64% | 1010.8 hPa | - | - | - | - |
| 1777869703 | 12.78° C | 64% | 1010.8 hPa | - | - | - | - |
| 1777868803 | 12.22° C | 67% | 1010.6 hPa | - | - | - | - |
| 1777867903 | 12.22° C | 66% | 1010.5 hPa | - | - | - | - |
| 1777867003 | 12.22° C | 67% | 1010.5 hPa | - | - | - | - |
| 1777866103 | 12.22° C | 66% | 1010.5 hPa | - | - | - | - |
| 1777865203 | 12.78° C | 66% | 1010.6 hPa | - | - | - | - |
| 1777864303 | 12.22° C | 66% | 1010.5 hPa | - | - | - | - |
| 1777863402 | 12.78° C | 65% | 1010.5 hPa | - | - | - | - |
| 1777862502 | 12.78° C | 65% | 1010.6 hPa | - | - | - | - |
| 1777861643 | 12.78° C | 66% | 1010.6 hPa | - | - | - | - |
| 1777861602 | 12.78° C | 66% | 1010.6 hPa | - | - | - | - |
| 1777860742 | 12.78° C | 66% | 1010.6 hPa | - | - | - | - |
| 1777860702 | 12.78° C | 66% | 1010.6 hPa | - | - | - | - |
| 1777859801 | 12.78° C | 65% | 1010.6 hPa | - | - | - | - |
| 1777858901 | 12.78° C | 65% | 1010.7 hPa | - | - | - | - |
| 1777858001 | 13.33° C | 64% | 1010.7 hPa | - | - | - | - |
| 1777857098 | 13.33° C | 64% | 1010.7 hPa | - | - | - | - |
| 1777856198 | 13.33° C | 63% | 1010.6 hPa | - | - | - | - |
* Rain since midnight (hover to see other rain measurements)
** Current wind speed in m/s (hover to see current wind gust speed)